Time;durP1;ratioP1;P1;durP2;ratioP2;P2;SDS_P1;SDS_P2;PMS_P1;PMS_P2;Temp;Humidity;BMP_temperature;BMP_pressure;BME280_temperature;BME280_humidity;BME280_pressure;Samples;Min_cycle;Max_cycle;Signal;HPM_P1;HPM_P2
2023/04/11 00:00:29;;;;;;;6.70;5.57;;;10.40;88.90;;;;;;5094364;28;20236;-76
2023/04/11 00:02:58;;;;;;;6.00;5.40;;;10.40;89.20;;;;;;5094207;28;20271;-76
2023/04/11 00:05:30;;;;;;;6.20;5.60;;;10.40;89.40;;;;;;5094149;28;20207;-76
2023/04/11 00:07:56;;;;;;;6.87;5.70;;;10.40;88.80;;;;;;5093989;28;20207;-76
2023/04/11 00:10:23;;;;;;;6.27;5.57;;;10.40;89.40;;;;;;5093902;28;20721;-75
2023/04/11 00:12:50;;;;;;;6.63;5.53;;;10.30;89.50;;;;;;5093868;28;20695;-76
2023/04/11 00:15:18;;;;;;;6.37;5.10;;;10.40;90.10;;;;;;5094002;28;20281;-75
2023/04/11 00:17:45;;;;;;;7.60;5.30;;;10.40;89.40;;;;;;5093937;28;20200;-76
2023/04/11 00:20:13;;;;;;;7.13;5.43;;;10.30;90.50;;;;;;5093040;28;20239;-75
2023/04/11 00:22:42;;;;;;;6.80;5.57;;;10.30;90.30;;;;;;5093539;28;20216;-75
2023/04/11 00:25:09;;;;;;;8.70;5.13;;;10.30;90.20;;;;;;5093867;28;20204;-75
2023/04/11 00:27:36;;;;;;;5.67;4.90;;;10.30;90.50;;;;;;5093610;28;20677;-75
2023/04/11 00:30:03;;;;;;;6.40;5.47;;;10.20;90.30;;;;;;5093659;28;20228;-76
2023/04/11 00:32:29;;;;;;;6.43;5.20;;;10.30;90.50;;;;;;5093497;28;20824;-76
2023/04/11 00:34:56;;;;;;;6.00;4.93;;;10.30;90.60;;;;;;5093491;28;20681;-75
2023/04/11 00:37:23;;;;;;;6.00;5.17;;;10.30;90.50;;;;;;5093907;28;20224;-75
2023/04/11 00:39:51;;;;;;;5.97;5.13;;;10.20;90.70;;;;;;5093589;28;20223;-75
2023/04/11 00:42:19;;;;;;;6.17;5.37;;;10.30;91.20;;;;;;5093595;28;20203;-75
2023/04/11 00:44:46;;;;;;;5.80;5.20;;;10.30;91.70;;;;;;5093229;28;20267;-76
2023/04/11 00:47:13;;;;;;;5.43;4.83;;;10.30;93.10;;;;;;5092965;28;20694;-75
2023/04/11 00:49:40;;;;;;;6.40;5.20;;;10.20;94.00;;;;;;5093222;28;20663;-76
2023/04/11 00:52:07;;;;;;;6.43;4.90;;;10.20;95.90;;;;;;5093249;28;20744;-75
2023/04/11 00:54:34;;;;;;;6.90;5.43;;;10.20;96.40;;;;;;5093181;28;20223;-76
2023/04/11 00:57:04;;;;;;;5.90;5.10;;;10.10;99.90;;;;;;5093210;28;20192;-75
2023/04/11 00:59:32;;;;;;;5.43;4.90;;;10.20;97.60;;;;;;5093257;28;20295;-75
2023/04/11 01:02:00;;;;;;;6.33;4.33;;;10.20;98.90;;;;;;5093505;28;20224;-75
2023/04/11 01:04:28;;;;;;;4.53;4.13;;;10.30;97.30;;;;;;5092875;28;20239;-75
2023/04/11 01:06:58;;;;;;;5.97;4.53;;;10.30;97.60;;;;;;5093150;28;20196;-77
2023/04/11 01:09:28;;;;;;;5.40;4.33;;;10.20;99.90;;;;;;5093066;28;20253;-77
2023/04/11 01:11:56;;;;;;;4.33;3.93;;;9.80;99.90;;;;;;5093011;28;20311;-76
2023/04/11 01:14:26;;;;;;;6.53;4.60;;;9.70;99.90;;;;;;5092903;28;20610;-78
2023/04/11 01:16:55;;;;;;;5.77;4.73;;;9.70;99.90;;;;;;5092832;28;20348;-77
2023/04/11 01:19:24;;;;;;;4.80;4.17;;;9.80;99.90;;;;;;5093408;28;20249;-78
2023/04/11 01:21:52;;;;;;;8.37;4.30;;;9.90;99.90;;;;;;5093012;28;20204;-77
2023/04/11 01:24:20;;;;;;;5.23;4.57;;;9.90;99.90;;;;;;5092801;28;20255;-77
2023/04/11 01:26:47;;;;;;;6.20;4.33;;;9.80;99.90;;;;;;5092806;28;20224;-76
2023/04/11 01:29:13;;;;;;;5.87;4.10;;;9.80;99.90;;;;;;5092654;28;20243;-77
2023/04/11 01:31:40;;;;;;;4.77;4.27;;;9.70;99.90;;;;;;5092886;28;20228;-77
2023/04/11 01:34:11;;;;;;;4.73;4.07;;;9.70;99.90;;;;;;5092915;28;20260;-77
2023/04/11 01:36:38;;;;;;;6.27;4.20;;;9.80;99.90;;;;;;5093139;28;20678;-78
2023/04/11 01:39:05;;;;;;;5.27;4.03;;;9.70;99.90;;;;;;5092979;28;20284;-78
2023/04/11 01:41:34;;;;;;;6.30;4.60;;;9.60;99.90;;;;;;5093096;28;20195;-78
2023/04/11 01:44:01;;;;;;;5.60;4.20;;;9.60;99.90;;;;;;5092768;28;20610;-78
2023/04/11 01:46:28;;;;;;;4.80;4.13;;;9.70;99.90;;;;;;5092926;28;20242;-79
2023/04/11 01:48:55;;;;;;;6.47;4.80;;;9.80;99.90;;;;;;5092799;28;20277;-78
2023/04/11 01:51:22;;;;;;;7.47;4.40;;;9.70;99.90;;;;;;5092821;28;20248;-78
2023/04/11 01:53:48;;;;;;;6.77;4.60;;;9.70;99.90;;;;;;5092785;28;20251;-79
2023/04/11 01:56:15;;;;;;;8.17;4.37;;;9.70;99.90;;;;;;5092740;28;20201;-78
2023/04/11 01:58:43;;;;;;;9.07;4.80;;;9.70;99.90;;;;;;5092544;28;20283;-79
2023/04/11 02:01:12;;;;;;;5.00;4.33;;;9.70;99.90;;;;;;5092821;28;20232;-80
2023/04/11 02:03:38;;;;;;;5.50;4.43;;;9.70;99.90;;;;;;5092682;28;20220;-81
2023/04/11 02:06:05;;;;;;;6.90;4.50;;;9.60;99.90;;;;;;5092872;28;20231;-80
2023/04/11 02:08:32;;;;;;;6.57;5.20;;;9.50;99.90;;;;;;5092514;28;20639;-78
2023/04/11 02:10:59;;;;;;;7.07;5.33;;;9.40;99.90;;;;;;5092358;28;20235;-79
2023/04/11 02:13:25;;;;;;;7.00;5.20;;;9.10;99.90;;;;;;5092347;28;20583;-79
2023/04/11 02:15:53;;;;;;;8.77;5.30;;;8.90;99.90;;;;;;5092479;28;20286;-79
2023/04/11 02:18:20;;;;;;;6.40;5.47;;;8.70;99.90;;;;;;5092432;28;20243;-78
2023/04/11 02:20:47;;;;;;;6.17;5.37;;;8.80;99.90;;;;;;5092372;28;20192;-78
2023/04/11 02:23:15;;;;;;;7.27;5.83;;;8.60;99.90;;;;;;5092047;28;20196;-78
2023/04/11 02:25:41;;;;;;;7.47;6.07;;;8.60;99.90;;;;;;5092183;28;20246;-78
2023/04/11 02:28:08;;;;;;;6.83;5.53;;;8.60;99.90;;;;;;5092395;28;20533;-78
2023/04/11 02:30:34;;;;;;;6.80;5.37;;;8.80;99.90;;;;;;5092365;28;20232;-78
2023/04/11 02:33:03;;;;;;;6.63;5.20;;;8.80;99.90;;;;;;5092328;28;20231;-79
2023/04/11 02:35:29;;;;;;;8.00;5.80;;;8.80;99.90;;;;;;5092255;28;20232;-78
2023/04/11 02:37:56;;;;;;;9.37;6.03;;;8.70;99.90;;;;;;5092290;28;20196;-78
2023/04/11 02:40:23;;;;;;;8.47;6.47;;;8.60;99.90;;;;;;5092012;28;20235;-78
2023/04/11 02:42:49;;;;;;;10.27;6.50;;;8.60;99.90;;;;;;5094297;28;20239;-79
2023/04/11 02:45:16;;;;;;;8.17;6.63;;;8.50;99.90;;;;;;5095620;28;20663;-79
2023/04/11 02:47:42;;;;;;;11.77;7.47;;;8.50;99.90;;;;;;5095806;28;20269;-79
2023/04/11 02:50:11;;;;;;;7.60;6.27;;;8.40;99.90;;;;;;5095736;28;20664;-78
2023/04/11 02:52:40;;;;;;;7.27;6.20;;;8.30;99.90;;;;;;5095723;28;20236;-79
2023/04/11 02:55:08;;;;;;;10.50;6.47;;;8.40;99.90;;;;;;5095788;28;20687;-79
2023/04/11 02:57:34;;;;;;;8.57;6.60;;;8.40;99.90;;;;;;5095680;28;20234;-78
2023/04/11 03:00:03;;;;;;;7.90;6.60;;;8.40;99.90;;;;;;5095611;28;20622;-79
2023/04/11 03:02:30;;;;;;;8.23;6.37;;;8.40;99.90;;;;;;5095630;28;20200;-79
2023/04/11 03:04:56;;;;;;;8.17;5.80;;;8.30;99.90;;;;;;5095390;28;20771;-82
2023/04/11 03:07:25;;;;;;;7.73;6.23;;;8.30;99.90;;;;;;5095408;28;20201;-79
2023/04/11 03:09:52;;;;;;;9.43;6.40;;;8.40;99.90;;;;;;5095551;28;20265;-80
2023/04/11 03:12:19;;;;;;;7.10;6.00;;;8.40;99.90;;;;;;5095474;28;20228;-80
2023/04/11 03:14:45;;;;;;;7.77;6.03;;;8.40;99.90;;;;;;5095614;28;20360;-80
2023/04/11 03:17:12;;;;;;;9.73;6.47;;;8.30;99.90;;;;;;5095372;28;20275;-81
2023/04/11 03:19:39;;;;;;;9.83;5.90;;;8.30;99.90;;;;;;5095375;28;20254;-81
2023/04/11 03:22:05;;;;;;;7.33;6.10;;;8.30;99.90;;;;;;5095502;28;20253;-81
2023/04/11 03:24:33;;;;;;;7.80;6.67;;;8.40;99.90;;;;;;5095575;28;20200;-82
2023/04/11 03:27:00;;;;;;;11.73;7.03;;;8.40;99.90;;;;;;5095147;28;20660;-80
2023/04/11 03:29:27;;;;;;;8.13;6.70;;;8.30;99.90;;;;;;5095039;28;20290;-79
2023/04/11 03:31:53;;;;;;;8.73;6.73;;;8.30;99.90;;;;;;5095257;28;20637;-79
2023/04/11 03:34:20;;;;;;;7.53;5.67;;;8.30;99.90;;;;;;5094567;28;20715;-79
2023/04/11 03:36:47;;;;;;;8.13;6.30;;;8.30;99.90;;;;;;5095218;28;20606;-77
2023/04/11 03:39:14;;;;;;;8.53;6.03;;;8.40;99.90;;;;;;5094848;28;20239;-78
2023/04/11 03:41:42;;;;;;;6.67;5.70;;;8.50;99.90;;;;;;5094761;28;20623;-78
2023/04/11 03:44:08;;;;;;;7.03;5.90;;;8.50;99.90;;;;;;5094482;28;20666;-78
2023/04/11 03:46:35;;;;;;;7.50;6.07;;;8.60;99.90;;;;;;5094386;28;20239;-77
2023/04/11 03:49:01;;;;;;;7.47;5.37;;;8.60;99.90;;;;;;5094366;28;20243;-79
2023/04/11 03:51:28;;;;;;;8.70;5.10;;;8.60;99.90;;;;;;5094530;28;20227;-78
2023/04/11 03:53:55;;;;;;;5.30;4.63;;;8.50;99.90;;;;;;5093228;28;20278;-77
2023/04/11 03:56:22;;;;;;;7.50;4.80;;;8.60;99.90;;;;;;5094388;28;20197;-77
2023/04/11 03:58:50;;;;;;;6.00;5.13;;;8.70;99.90;;;;;;5094191;28;20200;-77
2023/04/11 04:01:16;;;;;;;6.23;4.07;;;8.70;99.90;;;;;;5094175;28;20616;-77
2023/04/11 04:03:43;;;;;;;6.17;4.43;;;8.70;99.90;;;;;;5094337;28;20230;-77
2023/04/11 04:06:10;;;;;;;5.87;4.60;;;8.70;99.90;;;;;;5094405;28;20239;-77
2023/04/11 04:08:36;;;;;;;6.60;4.07;;;8.70;99.90;;;;;;5094205;28;20193;-77
2023/04/11 04:11:03;;;;;;;5.83;4.00;;;8.70;99.90;;;;;;5094047;28;20196;-77
2023/04/11 04:13:30;;;;;;;4.37;3.47;;;8.70;99.90;;;;;;5094048;28;20623;-77
2023/04/11 04:15:58;;;;;;;6.33;3.60;;;8.70;99.90;;;;;;5093719;28;20266;-76
2023/04/11 04:18:25;;;;;;;4.70;4.10;;;8.60;99.90;;;;;;5093709;28;20598;-79
2023/04/11 04:20:51;;;;;;;4.53;3.60;;;8.60;99.90;;;;;;5093899;28;20224;-78
2023/04/11 04:23:18;;;;;;;4.33;3.30;;;8.60;99.90;;;;;;5093848;28;20246;-78
2023/04/11 04:25:47;;;;;;;3.13;2.80;;;8.60;99.90;;;;;;5093792;28;20302;-78
2023/04/11 04:28:19;;;;;;;3.87;3.07;;;8.60;99.90;;;;;;5093534;28;20227;-78
2023/04/11 04:30:48;;;;;;;5.07;3.10;;;8.50;99.90;;;;;;5093761;28;20235;-78
2023/04/11 04:33:17;;;;;;;3.47;3.17;;;8.50;99.90;;;;;;5093751;28;20203;-78
2023/04/11 04:35:44;;;;;;;7.80;2.93;;;8.40;99.90;;;;;;5093437;28;20240;-78
2023/04/11 04:38:16;;;;;;;4.00;2.77;;;8.40;99.90;;;;;;5093417;28;20554;-78
2023/04/11 04:40:43;;;;;;;3.83;3.20;;;8.30;99.90;;;;;;5093476;28;20727;-78
2023/04/11 04:43:16;;;;;;;3.77;2.77;;;8.40;99.90;;;;;;5093461;28;20235;-77
2023/04/11 04:45:43;;;;;;;3.87;3.20;;;8.30;99.90;;;;;;5093164;28;20556;-79
2023/04/11 04:48:10;;;;;;;4.50;3.50;;;8.30;99.90;;;;;;5093333;28;20610;-76
2023/04/11 04:50:38;;;;;;;5.10;3.50;;;8.40;99.90;;;;;;5093254;28;20232;-76
2023/04/11 04:53:05;;;;;;;4.33;3.50;;;8.40;99.90;;;;;;5093109;28;20204;-76
2023/04/11 04:55:32;;;;;;;6.17;3.33;;;8.50;99.90;;;;;;5092805;28;20662;-79
2023/04/11 04:57:58;;;;;;;4.23;3.37;;;8.50;99.90;;;;;;5093368;28;20250;-76
2023/04/11 05:00:25;;;;;;;5.30;3.07;;;8.50;99.90;;;;;;5093398;28;20246;-78
2023/04/11 05:02:53;;;;;;;3.20;2.80;;;8.50;99.90;;;;;;5093341;28;20232;-78
2023/04/11 05:05:20;;;;;;;3.07;2.77;;;8.40;99.90;;;;;;5092766;28;20201;-78
2023/04/11 05:07:48;;;;;;;4.37;3.00;;;8.20;99.90;;;;;;5093081;28;20231;-78
2023/04/11 05:10:14;;;;;;;5.03;2.80;;;8.00;99.90;;;;;;5093011;28;20311;-79
2023/04/11 05:12:41;;;;;;;2.53;1.80;;;8.00;99.90;;;;;;5093230;28;20192;-79
2023/04/11 05:15:10;;;;;;;3.27;1.50;;;7.70;99.90;;;;;;5092921;28;20259;-75
2023/04/11 05:17:37;;;;;;;3.73;1.57;;;7.40;99.90;;;;;;5092895;28;20231;-77
2023/04/11 05:20:06;;;;;;;1.60;1.33;;;7.20;99.90;;;;;;5092874;28;20236;-78
2023/04/11 05:22:33;;;;;;;1.53;1.30;;;7.10;99.90;;;;;;5092700;28;20219;-78
2023/04/11 05:25:01;;;;;;;1.60;1.40;;;7.10;99.90;;;;;;5093066;28;20228;-78
2023/04/11 05:27:27;;;;;;;2.07;1.53;;;7.10;99.90;;;;;;5093043;28;20281;-79
2023/04/11 05:29:54;;;;;;;4.13;1.70;;;7.10;99.90;;;;;;5092813;28;20232;-78
2023/04/11 05:32:21;;;;;;;3.07;1.50;;;7.10;99.90;;;;;;5092648;28;20683;-79
2023/04/11 05:34:52;;;;;;;2.10;1.60;;;7.10;99.90;;;;;;5092480;28;20264;-79
2023/04/11 05:37:18;;;;;;;1.70;1.30;;;7.10;99.90;;;;;;5092484;28;20236;-79
2023/04/11 05:39:45;;;;;;;4.50;1.70;;;7.10;99.90;;;;;;5092815;28;20274;-80
2023/04/11 05:42:16;;;;;;;4.83;1.40;;;7.00;99.90;;;;;;5092502;28;20231;-80
2023/04/11 05:44:43;;;;;;;1.97;1.30;;;7.00;99.90;;;;;;5092851;28;20196;-80
2023/04/11 05:47:10;;;;;;;1.70;1.30;;;6.90;99.90;;;;;;5092782;28;20606;-79
2023/04/11 05:49:37;;;;;;;2.93;1.50;;;7.00;99.90;;;;;;5092755;28;20193;-79
2023/04/11 05:52:03;;;;;;;3.63;1.70;;;6.90;99.90;;;;;;5092828;28;20192;-79
2023/04/11 05:54:34;;;;;;;2.13;1.40;;;6.90;99.90;;;;;;5092740;28;20238;-79
2023/04/11 05:57:01;;;;;;;3.93;1.60;;;6.90;99.90;;;;;;5092667;28;20200;-79
2023/04/11 05:59:31;;;;;;;5.17;1.73;;;7.10;99.90;;;;;;5092459;28;20207;-78
2023/04/11 06:01:58;;;;;;;2.63;1.40;;;7.00;99.90;;;;;;5092357;28;20652;-79
2023/04/11 06:04:24;;;;;;;2.63;1.50;;;7.00;99.90;;;;;;5092468;28;20236;-79
2023/04/11 06:06:52;;;;;;;3.07;1.80;;;7.00;99.90;;;;;;5092875;28;20196;-79
2023/04/11 06:09:19;;;;;;;3.80;1.40;;;7.00;99.90;;;;;;5092718;28;20243;-80
2023/04/11 06:11:45;;;;;;;3.43;1.63;;;7.00;99.90;;;;;;5092474;28;20249;-80
2023/04/11 06:14:12;;;;;;;4.23;1.60;;;6.90;99.90;;;;;;5092515;28;20201;-79
2023/04/11 06:16:41;;;;;;;1.37;1.17;;;6.90;99.90;;;;;;5092843;28;20228;-78
2023/04/11 06:19:07;;;;;;;2.33;1.30;;;6.90;99.90;;;;;;5096645;28;20197;-80
2023/04/11 06:21:34;;;;;;;2.63;1.57;;;6.90;99.90;;;;;;5096289;28;20231;-81
2023/04/11 06:24:04;;;;;;;3.83;1.40;;;6.80;99.90;;;;;;5096202;28;20247;-78
2023/04/11 06:26:31;;;;;;;3.73;1.43;;;6.80;99.90;;;;;;5096182;28;20289;-80
2023/04/11 06:28:58;;;;;;;3.80;1.27;;;6.80;99.90;;;;;;5096176;28;20287;-80
2023/04/11 06:31:25;;;;;;;2.37;1.40;;;6.70;99.90;;;;;;5096066;28;20228;-81
2023/04/11 06:33:52;;;;;;;3.43;1.93;;;6.80;99.90;;;;;;5096319;28;20311;-81
2023/04/11 06:36:19;;;;;;;2.70;1.30;;;6.70;99.90;;;;;;5096302;28;20258;-81
2023/04/11 06:38:46;;;;;;;4.40;1.10;;;6.70;99.90;;;;;;5096382;28;20253;-78
2023/04/11 06:41:12;;;;;;;2.53;1.40;;;6.70;99.90;;;;;;5096068;28;20196;-78
2023/04/11 06:43:39;;;;;;;2.37;1.30;;;6.80;99.90;;;;;;5096030;28;20234;-80
2023/04/11 06:46:07;;;;;;;3.87;1.70;;;6.80;99.90;;;;;;5096029;28;20197;-81
2023/04/11 06:48:34;;;;;;;3.00;1.33;;;6.80;99.90;;;;;;5095965;28;20200;-79
2023/04/11 06:51:02;;;;;;;2.83;1.53;;;6.80;99.90;;;;;;5095745;28;20200;-79
2023/04/11 06:53:28;;;;;;;1.43;1.20;;;6.90;99.90;;;;;;5095604;28;20196;-79
2023/04/11 06:55:55;;;;;;;3.33;1.50;;;7.00;99.90;;;;;;5095096;28;20710;-81
2023/04/11 06:58:22;;;;;;;2.77;1.40;;;7.00;99.90;;;;;;5095441;28;20204;-79
2023/04/11 07:00:48;;;;;;;1.37;1.27;;;6.90;99.90;;;;;;5096005;28;20744;-80
2023/04/11 07:03:15;;;;;;;2.83;1.43;;;6.90;99.90;;;;;;5096126;28;20238;-79
2023/04/11 07:05:41;;;;;;;3.20;1.60;;;7.10;99.90;;;;;;5095545;28;20234;-80
2023/04/11 07:08:09;;;;;;;2.77;1.60;;;7.10;99.90;;;;;;5095396;28;20221;-79
2023/04/11 07:10:36;;;;;;;2.40;1.60;;;7.10;99.90;;;;;;5095491;28;20598;-81
2023/04/11 07:13:03;;;;;;;1.70;1.50;;;7.00;99.90;;;;;;5095531;28;20239;-79
2023/04/11 07:15:29;;;;;;;2.97;1.50;;;7.00;99.90;;;;;;5096160;28;20228;-80
2023/04/11 07:17:56;;;;;;;2.57;1.87;;;6.90;99.90;;;;;;5095681;28;20626;-78
2023/04/11 07:20:23;;;;;;;2.87;1.93;;;7.00;99.90;;;;;;5094557;28;20224;-79
2023/04/11 07:22:49;;;;;;;2.87;1.87;;;6.90;99.90;;;;;;5095424;28;20228;-80
2023/04/11 07:25:21;;;;;;;2.07;1.60;;;7.00;99.90;;;;;;5094909;28;20227;-81
2023/04/11 07:27:50;;;;;;;1.90;1.20;;;7.20;99.90;;;;;;5096220;28;20207;-84
2023/04/11 07:30:17;;;;;;;1.77;1.40;;;7.30;99.90;;;;;;5098503;28;20257;-85
2023/04/11 07:32:44;;;;;;;2.13;1.40;;;7.40;99.90;;;;;;5095830;28;20227;-81
2023/04/11 07:35:11;;;;;;;4.50;2.03;;;7.50;99.90;;;;;;5088908;27;20243;-83
2023/04/11 07:37:37;;;;;;;6.20;3.97;;;7.70;99.90;;;;;;5088431;28;20226;-79
2023/04/11 07:40:10;;;;;;;5.53;2.73;;;7.70;99.90;;;;;;5094992;28;20219;-84
2023/04/11 07:42:38;;;;;;;2.30;1.30;;;7.70;99.90;;;;;;5095601;28;20226;-82
2023/04/11 07:45:05;;;;;;;2.30;1.23;;;7.80;99.90;;;;;;5096402;28;20196;-87
2023/04/11 07:47:32;;;;;;;2.27;1.27;;;8.10;99.90;;;;;;5095404;28;20197;-82
2023/04/11 07:49:59;;;;;;;3.10;1.30;;;8.30;99.90;;;;;;5095709;28;20224;-83
2023/04/11 07:52:26;;;;;;;2.57;1.40;;;8.50;99.90;;;;;;5094951;28;20736;-82
2023/04/11 07:54:52;;;;;;;2.23;1.40;;;8.50;99.90;;;;;;5094110;28;20239;-81
2023/04/11 07:57:19;;;;;;;3.63;1.13;;;8.50;99.90;;;;;;5094825;28;20667;-82
2023/04/11 07:59:47;;;;;;;2.90;1.47;;;8.40;99.90;;;;;;5094488;28;20675;-83
2023/04/11 08:02:13;;;;;;;2.80;1.50;;;8.50;99.90;;;;;;5094998;28;20243;-77
2023/04/11 08:04:40;;;;;;;4.07;1.77;;;8.40;99.90;;;;;;5093910;28;20220;-76
2023/04/11 08:07:07;;;;;;;5.27;2.10;;;8.30;99.90;;;;;;5093896;28;20253;-75
2023/04/11 08:09:34;;;;;;;1.67;1.30;;;8.30;99.90;;;;;;5093818;28;20228;-76
2023/04/11 08:12:00;;;;;;;1.57;1.30;;;8.10;99.90;;;;;;5094167;28;20203;-76
2023/04/11 08:14:27;;;;;;;2.67;1.50;;;8.20;99.90;;;;;;5093962;28;20207;-79
2023/04/11 08:16:55;;;;;;;2.30;1.40;;;8.30;99.90;;;;;;5093794;28;20274;-78
2023/04/11 08:19:21;;;;;;;4.33;1.37;;;8.50;99.90;;;;;;5094208;28;20232;-78
2023/04/11 08:21:48;;;;;;;3.40;1.57;;;8.10;99.90;;;;;;5093600;28;20611;-78
2023/04/11 08:24:15;;;;;;;3.37;1.60;;;8.30;99.90;;;;;;5094302;28;20203;-80
2023/04/11 08:26:41;;;;;;;2.73;1.37;;;8.50;99.90;;;;;;5094485;28;20223;-81
2023/04/11 08:29:09;;;;;;;3.53;1.30;;;8.30;99.90;;;;;;5094173;28;20227;-76
2023/04/11 08:31:36;;;;;;;3.70;1.50;;;8.40;99.90;;;;;;5097980;28;20199;-78
2023/04/11 08:34:04;;;;;;;2.93;1.30;;;8.30;99.90;;;;;;5096884;28;20258;-75
2023/04/11 08:36:31;;;;;;;3.80;1.43;;;8.40;99.90;;;;;;5096603;28;20224;-81
2023/04/11 08:38:59;;;;;;;1.77;1.40;;;8.80;99.90;;;;;;5106578;28;20255;-82
2023/04/11 08:41:29;;;;;;;2.30;1.50;;;8.90;99.90;;;;;;5109944;28;20195;-79
2023/04/11 08:43:56;;;;;;;3.50;1.57;;;8.70;99.90;;;;;;5117263;28;20200;-75
2023/04/11 08:46:23;;;;;;;4.50;1.50;;;8.90;99.90;;;;;;5095530;28;20249;-79
2023/04/11 08:48:49;;;;;;;2.87;1.70;;;8.80;99.90;;;;;;5093743;28;20230;-78
2023/04/11 08:51:22;;;;;;;3.20;1.80;;;9.10;99.90;;;;;;5093881;28;20302;-78
2023/04/11 08:53:50;;;;;;;3.23;1.70;;;9.40;99.90;;;;;;5093857;28;20224;-79
2023/04/11 08:56:17;;;;;;;2.73;1.90;;;9.60;99.90;;;;;;5093622;28;20252;-80
2023/04/11 08:58:43;;;;;;;4.90;2.03;;;9.40;99.90;;;;;;5093733;28;20227;-77
2023/04/11 09:01:27;;;;;;;2.80;2.27;;;9.20;99.90;;;;;;5093722;28;20239;-81
2023/04/11 09:03:54;;;;;;;3.20;2.00;;;9.10;99.90;;;;;;5093561;28;20594;-81
2023/04/11 09:06:22;;;;;;;3.67;2.13;;;9.00;99.90;;;;;;5093092;28;20653;-81
2023/04/11 09:08:49;;;;;;;4.73;2.10;;;9.10;99.90;;;;;;5092885;28;20234;-79
2023/04/11 09:11:16;;;;;;;3.37;2.10;;;9.10;99.90;;;;;;5093206;28;20262;-78
2023/04/11 09:13:43;;;;;;;4.17;2.40;;;9.20;99.90;;;;;;5092917;28;20251;-79
2023/04/11 09:16:11;;;;;;;6.33;2.40;;;9.50;99.90;;;;;;5092776;28;20251;-80
2023/04/11 09:18:39;;;;;;;12.57;2.67;;;9.40;99.90;;;;;;5093029;28;20208;-79
2023/04/11 09:21:07;;;;;;;6.07;2.43;;;9.60;99.90;;;;;;5092992;28;20607;-80
2023/04/11 09:23:36;;;;;;;4.37;2.20;;;9.60;99.90;;;;;;5093729;28;20225;-80
2023/04/11 09:26:05;;;;;;;4.07;2.07;;;9.80;99.90;;;;;;5093727;28;20261;-79
2023/04/11 09:28:41;;;;;;;8.30;2.57;;;10.10;99.90;;;;;;5092991;28;20196;-78
2023/04/11 09:31:09;;;;;;;5.07;2.40;;;9.90;99.90;;;;;;5092985;28;20192;-79
2023/04/11 09:33:36;;;;;;;3.87;1.80;;;10.00;99.90;;;;;;5095183;28;20239;-80
2023/04/11 09:36:21;;;;;;;6.37;2.23;;;10.40;99.90;;;;;;5095000;28;20224;-81
2023/04/11 09:38:50;;;;;;;5.63;1.80;;;10.60;99.90;;;;;;5093450;28;20196;-80
2023/04/11 09:41:29;;;;;;;4.97;1.67;;;11.10;99.90;;;;;;5092987;28;20196;-80
2023/04/11 09:43:56;;;;;;;4.90;1.70;;;11.40;99.90;;;;;;5092924;28;20200;-81
2023/04/11 09:46:24;;;;;;;3.13;1.70;;;11.50;99.90;;;;;;5092882;28;20226;-79
2023/04/11 09:48:53;;;;;;;2.67;1.57;;;11.50;99.90;;;;;;5092039;28;20644;-79
2023/04/11 09:51:20;;;;;;;4.77;1.80;;;11.50;99.90;;;;;;5094140;28;20207;-80
2023/04/11 09:53:48;;;;;;;6.47;1.80;;;11.60;99.90;;;;;;5098343;28;20663;-80
2023/04/11 09:56:15;;;;;;;3.77;1.40;;;11.80;99.90;;;;;;5096814;28;20264;-80
2023/04/11 09:58:41;;;;;;;5.33;1.80;;;11.80;99.90;;;;;;5096918;28;20198;-81
2023/04/11 10:01:10;;;;;;;4.40;1.77;;;12.40;99.90;;;;;;5096951;28;20222;-80
2023/04/11 10:03:38;;;;;;;3.20;1.50;;;12.00;99.90;;;;;;5096854;28;20212;-80
2023/04/11 10:06:08;;;;;;;5.27;2.03;;;12.80;99.90;;;;;;5096397;28;20197;-80
2023/04/11 10:08:36;;;;;;;4.80;2.03;;;12.60;99.90;;;;;;5096603;28;20193;-80
2023/04/11 10:11:07;;;;;;;3.77;1.90;;;11.50;99.90;;;;;;5096933;28;20247;-80
2023/04/11 10:13:41;;;;;;;4.03;1.93;;;11.00;99.90;;;;;;5096569;28;20660;-80
2023/04/11 10:16:11;;;;;;;4.07;1.57;;;11.30;99.90;;;;;;5096525;28;20226;-80
2023/04/11 10:18:39;;;;;;;5.77;2.10;;;11.50;99.90;;;;;;5099114;28;20204;-80
2023/04/11 10:21:39;;;;;;;5.40;1.90;;;11.90;99.90;;;;;;5096336;28;20207;-77
2023/04/11 10:24:10;;;;;;;2.60;1.80;;;12.70;99.90;;;;;;5096249;28;20196;-79
2023/04/11 10:26:56;;;;;;;3.73;1.60;;;11.80;99.90;;;;;;5096286;28;20227;-78
2023/04/11 10:29:45;;;;;;;4.83;2.30;;;12.50;99.90;;;;;;5096514;28;20231;-78
2023/04/11 10:32:13;;;;;;;5.57;1.90;;;12.60;99.90;;;;;;5079033;28;20267;-75
2023/04/11 10:35:00;;;;;;;4.07;1.80;;;12.80;99.90;;;;;;5095612;28;20262;-75
2023/04/11 10:37:32;;;;;;;4.97;2.08;;;13.10;99.90;;;;;;5095454;28;20289;-76
2023/04/11 10:40:08;;;;;;;3.92;1.70;;;13.40;99.90;;;;;;5096009;28;20192;-76
2023/04/11 10:42:39;;;;;;;4.22;1.80;;;13.30;99.90;;;;;;5095973;28;20647;-76
2023/04/11 10:45:23;;;;;;;2.20;1.53;;;12.70;99.90;;;;;;5096083;28;20579;-75
2023/04/11 10:48:09;;;;;;;3.53;1.67;;;12.20;99.80;;;;;;5076162;28;20542;-78
2023/04/11 10:50:43;;;;;;;5.47;1.80;;;12.00;99.90;;;;;;5077064;28;20201;-78
2023/04/11 10:53:35;;;;;;;2.10;1.30;;;11.80;99.90;;;;;;5095568;28;20205;-77
2023/04/11 10:56:03;;;;;;;3.50;1.50;;;11.10;99.90;;;;;;5095063;28;20277;-77
2023/04/11 10:58:38;;;;;;;4.60;2.07;;;11.90;99.90;;;;;;5095455;28;20232;-78
2023/04/11 11:01:25;;;;;;;2.97;1.40;;;11.50;99.90;;;;;;5095308;28;20200;-77
2023/04/11 11:03:55;;;;;;;2.30;1.50;;;12.80;99.90;;;;;;5094405;28;20278;-76
2023/04/11 11:06:22;;;;;;;3.80;1.47;;;12.40;99.90;;;;;;5095496;28;20266;-76
2023/04/11 11:08:49;;;;;;;3.45;1.38;;;12.10;99.90;;;;;;5095173;28;20227;-77
2023/04/11 11:11:18;;;;;;;3.35;1.40;;;13.40;99.90;;;;;;5095526;28;20231;-77
2023/04/11 11:13:47;;;;;;;4.63;1.85;;;13.30;99.90;;;;;;5096220;28;20615;-77
2023/04/11 11:16:15;;;;;;;2.88;1.60;;;13.60;99.90;;;;;;5095006;28;20587;-76
2023/04/11 11:18:45;;;;;;;3.83;1.35;;;13.10;99.90;;;;;;5095032;28;20283;-76
2023/04/11 11:21:13;;;;;;;7.07;1.75;;;12.70;99.90;;;;;;5093633;28;20207;-77
2023/04/11 11:23:40;;;;;;;4.07;2.10;;;13.10;99.90;;;;;;5077222;28;20201;-77
2023/04/11 11:26:07;;;;;;;2.70;1.80;;;14.50;99.30;;;;;;5075456;28;20576;-76
2023/04/11 11:28:46;;;;;;;4.82;1.77;;;13.80;99.30;;;;;;5074351;28;20572;-77
2023/04/11 11:31:12;;;;;;;2.92;1.67;;;14.00;99.30;;;;;;5074702;28;20208;-77
2023/04/11 11:33:41;;;;;;;4.63;1.60;;;12.50;99.90;;;;;;5073605;28;20236;-78
2023/04/11 11:36:09;;;;;;;8.27;2.00;;;12.60;99.90;;;;;;5081472;28;20211;-76
2023/04/11 11:38:37;;;;;;;3.50;1.60;;;12.70;99.90;;;;;;5094027;28;20322;-75
2023/04/11 11:41:04;;;;;;;2.70;1.80;;;13.00;99.90;;;;;;5094031;28;20227;-75
2023/04/11 11:43:37;;;;;;;3.60;1.80;;;12.60;99.90;;;;;;5094100;28;20239;-74
2023/04/11 11:46:08;;;;;;;4.83;1.70;;;12.30;99.90;;;;;;5093786;28;20297;-76
2023/04/11 11:48:35;;;;;;;5.73;2.00;;;12.00;99.90;;;;;;5093913;28;20196;-75
2023/04/11 11:51:02;;;;;;;6.23;2.10;;;11.80;99.90;;;;;;5093794;28;20200;-77
2023/04/11 11:53:29;;;;;;;4.30;1.70;;;11.60;99.90;;;;;;5093463;28;20239;-76
2023/04/11 11:55:56;;;;;;;3.80;1.53;;;11.30;99.90;;;;;;5093864;28;20196;-76
2023/04/11 11:58:23;;;;;;;2.80;1.33;;;11.50;99.90;;;;;;5093641;28;20242;-77
2023/04/11 12:00:52;;;;;;;2.47;1.47;;;12.40;96.90;;;;;;5094208;28;20262;-78
2023/04/11 12:03:21;;;;;;;2.70;1.53;;;14.30;94.30;;;;;;5094211;28;20220;-77
2023/04/11 12:05:50;;;;;;;9.27;1.60;;;14.70;91.00;;;;;;5094161;28;20223;-77
2023/04/11 12:08:20;;;;;;;4.50;1.60;;;15.70;83.50;;;;;;5094228;28;20200;-76
2023/04/11 12:10:48;;;;;;;4.47;1.75;;;14.30;85.10;;;;;;5094087;28;20745;-76
2023/04/11 12:13:18;;;;;;;4.13;1.87;;;12.70;87.80;;;;;;5095220;28;20250;-77
2023/04/11 12:15:49;;;;;;;3.87;1.60;;;12.20;91.80;;;;;;5093133;28;20200;-75
2023/04/11 12:18:20;;;;;;;3.33;1.50;;;11.90;93.50;;;;;;5094529;28;20287;-75
2023/04/11 12:20:47;;;;;;;2.80;1.30;;;11.40;99.90;;;;;;5094403;28;20212;-76
2023/04/11 12:23:13;;;;;;;2.67;1.23;;;11.60;99.90;;;;;;5094155;28;20231;-77
2023/04/11 12:25:40;;;;;;;2.90;1.37;;;11.40;99.90;;;;;;5093713;28;20655;-77
2023/04/11 12:28:08;;;;;;;2.17;1.30;;;12.40;99.90;;;;;;5093886;28;20194;-77
2023/04/11 12:30:34;;;;;;;5.15;2.65;;;13.60;99.90;;;;;;5093965;28;20231;-78
2023/04/11 12:33:01;;;;;;;2.10;1.70;;;14.40;96.80;;;;;;5093801;28;20196;-77
2023/04/11 12:35:37;;;;;;;5.05;1.83;;;14.10;96.00;;;;;;5090274;27;20909;-75
2023/04/11 12:38:03;;;;;;;6.18;4.65;;;13.40;96.40;;;;;;5090123;28;20201;-76
2023/04/11 12:40:30;;;;;;;5.40;3.35;;;14.40;96.30;;;;;;5090400;28;20646;-77
2023/04/11 12:42:57;;;;;;;4.85;1.70;;;14.40;95.70;;;;;;5089529;28;20244;-77
2023/04/11 12:45:24;;;;;;;2.72;1.40;;;16.10;94.70;;;;;;5089994;28;20372;-76
2023/04/11 12:47:50;;;;;;;3.38;2.03;;;16.60;91.70;;;;;;5072159;28;20193;-76
2023/04/11 12:50:17;;;;;;;3.88;3.42;;;16.00;92.30;;;;;;5069896;28;20200;-76
2023/04/11 12:52:47;;;;;;;5.88;2.03;;;16.30;89.50;;;;;;5069740;28;20240;-77
2023/04/11 12:55:14;;;;;;;5.05;2.17;;;15.00;92.10;;;;;;5077684;28;20219;-77
2023/04/11 12:57:41;;;;;;;4.10;1.85;;;15.80;91.80;;;;;;5088847;28;20227;-77